createdAt,value
2022-12-22T00:00:46.578Z,98.39
2022-12-22T00:01:49.992Z,98.54
2022-12-22T00:02:46.861Z,98.60
2022-12-22T00:03:46.787Z,98.75
2022-12-22T00:04:46.523Z,98.29
2022-12-22T00:05:46.536Z,98.65
2022-12-22T00:06:46.544Z,98.50
2022-12-22T00:07:46.513Z,98.13
2022-12-22T00:08:46.577Z,98.39
2022-12-22T00:09:46.501Z,98.50
2022-12-22T00:10:46.587Z,98.29
2022-12-22T00:11:46.567Z,98.33
2022-12-22T00:12:46.465Z,99.42
2022-12-22T00:13:46.505Z,99.21
2022-12-22T00:14:46.456Z,99.42
2022-12-22T00:15:47.470Z,99.21
2022-12-22T00:16:46.567Z,99.01
2022-12-22T00:19:17.921Z,99.42
2022-12-22T00:20:18.832Z,99.21
2022-12-22T00:21:17.898Z,99.11
2022-12-22T00:22:17.912Z,99.21
2022-12-22T00:23:17.899Z,99.21
2022-12-22T00:24:17.929Z,99.11
2022-12-22T00:25:17.888Z,99.42
2022-12-22T00:26:17.884Z,99.42
2022-12-22T00:27:17.872Z,99.52
2022-12-22T00:28:17.966Z,99.21
2022-12-22T00:29:17.887Z,99.21
2022-12-22T00:30:17.869Z,99.11
2022-12-22T00:31:17.912Z,98.80
2022-12-22T00:32:17.849Z,99.11
2022-12-22T00:33:17.864Z,99.52
2022-12-22T00:34:17.876Z,99.42
2022-12-22T00:35:17.894Z,99.32
2022-12-22T00:36:17.855Z,99.52
2022-12-22T00:37:17.810Z,99.42
2022-12-22T00:38:17.812Z,99.63
2022-12-22T00:39:17.811Z,99.52
2022-12-22T00:40:17.814Z,99.11
2022-12-22T00:41:17.782Z,99.52
2022-12-22T00:42:17.894Z,99.63
2022-12-22T00:43:17.873Z,99.17
2022-12-22T00:44:17.770Z,99.11
2022-12-22T00:45:17.764Z,99.32
2022-12-22T00:46:17.842Z,98.86
2022-12-22T00:47:17.758Z,98.70
2022-12-22T00:48:17.778Z,98.86
2022-12-22T00:49:17.743Z,98.86
2022-12-22T00:50:17.733Z,99.01
2022-12-22T00:51:17.720Z,99.21
2022-12-22T00:52:17.720Z,99.07
2022-12-22T00:53:17.781Z,99.63
2022-12-22T00:54:17.693Z,98.91
2022-12-22T00:55:17.713Z,98.96
2022-12-22T00:56:17.706Z,98.76
2022-12-22T00:57:17.683Z,99.27
2022-12-22T00:58:17.677Z,99.07
2022-12-22T00:59:17.673Z,99.07
2022-12-22T01:00:17.716Z,99.27
2022-12-22T01:01:17.706Z,99.07
2022-12-22T01:02:17.887Z,98.96
2022-12-22T01:03:17.720Z,98.96
2022-12-22T01:04:17.667Z,98.66
2022-12-22T01:05:17.673Z,98.66
2022-12-22T01:06:24.658Z,98.86
2022-12-22T01:07:17.615Z,98.04
2022-12-22T01:08:17.626Z,98.96
2022-12-22T01:09:17.593Z,99.38
2022-12-22T01:10:17.603Z,99.07
2022-12-22T01:11:17.590Z,98.96
2022-12-22T01:12:17.599Z,98.96
2022-12-22T01:13:17.583Z,98.92
2022-12-22T01:14:17.559Z,98.92
2022-12-22T01:15:17.554Z,98.55
2022-12-22T01:16:17.645Z,98.14
2022-12-22T01:17:17.632Z,98.45
2022-12-22T01:18:17.550Z,99.17
2022-12-22T01:19:17.518Z,99.17
2022-12-22T01:20:17.586Z,98.55
2022-12-22T01:21:17.525Z,98.55
2022-12-22T01:22:17.532Z,98.92
2022-12-22T01:23:17.500Z,99.17
2022-12-22T01:24:17.510Z,98.66
2022-12-22T01:25:17.501Z,98.35
2022-12-22T01:26:32.172Z,98.45
2022-12-22T01:27:18.489Z,98.76
2022-12-22T01:28:17.517Z,99.27
2022-12-22T01:29:17.447Z,98.96
2022-12-22T01:30:17.484Z,99.27
2022-12-22T01:31:17.531Z,99.27
2022-12-22T01:32:17.467Z,98.96
2022-12-22T01:33:17.456Z,99.17
2022-12-22T01:34:17.421Z,99.27
2022-12-22T01:35:17.440Z,99.27
2022-12-22T01:36:17.437Z,99.27
2022-12-22T01:37:17.391Z,99.48
2022-12-22T01:38:17.440Z,99.38
2022-12-22T01:39:17.393Z,98.61
2022-12-22T01:40:17.383Z,99.38
2022-12-22T01:41:17.491Z,99.17
2022-12-22T01:42:17.385Z,99.27
2022-12-22T01:43:17.364Z,99.12
2022-12-22T01:44:17.381Z,99.38
2022-12-22T01:45:32.170Z,99.12
2022-12-22T01:46:17.461Z,99.17
2022-12-22T01:47:17.355Z,99.07
2022-12-22T01:48:24.171Z,99.17
2022-12-22T01:49:17.312Z,99.27
2022-12-22T01:50:17.335Z,99.27
2022-12-22T01:51:17.306Z,99.27
2022-12-22T01:52:17.381Z,99.27
2022-12-22T01:53:19.953Z,99.27
2022-12-22T01:54:17.302Z,99.38
2022-12-22T01:55:17.302Z,99.27
2022-12-22T01:56:17.295Z,99.17
2022-12-22T01:57:17.264Z,99.17
2022-12-22T01:58:17.269Z,99.07
2022-12-22T01:59:17.305Z,99.27
2022-12-22T02:00:17.271Z,98.76
2022-12-22T02:01:17.255Z,99.17
2022-12-22T02:02:17.371Z,99.38
2022-12-22T02:03:17.318Z,99.27
2022-12-22T02:04:17.224Z,99.27
2022-12-22T02:05:17.213Z,99.38
2022-12-22T02:06:17.218Z,98.82
2022-12-22T02:07:17.207Z,98.82
2022-12-22T02:08:17.223Z,99.12
2022-12-22T02:09:17.199Z,98.92
2022-12-22T02:10:17.194Z,99.12
2022-12-22T02:11:17.192Z,99.27
2022-12-22T02:12:17.176Z,99.07
2022-12-22T02:13:17.160Z,99.12
2022-12-22T02:14:17.160Z,99.33
2022-12-22T02:15:17.190Z,98.92
2022-12-22T02:16:17.220Z,98.92
2022-12-22T02:17:17.135Z,98.86
2022-12-22T02:18:17.143Z,99.27
2022-12-22T02:19:17.120Z,98.71
2022-12-22T02:20:17.118Z,99.12
2022-12-22T02:21:17.134Z,98.66
2022-12-22T02:22:17.089Z,98.82
2022-12-22T02:23:17.102Z,99.33
2022-12-22T02:24:17.084Z,99.02
2022-12-22T02:25:17.107Z,99.68
2022-12-22T02:26:17.076Z,99.33
2022-12-22T02:27:17.070Z,99.02
2022-12-22T02:28:17.062Z,99.84
2022-12-22T02:29:53.187Z,99.27
2022-12-22T02:30:17.066Z,99.22
2022-12-22T02:31:17.087Z,99.02
2022-12-22T02:32:17.068Z,99.33
2022-12-22T02:33:17.030Z,98.82
2022-12-22T02:34:17.051Z,98.71
2022-12-22T02:35:17.023Z,98.61
2022-12-22T02:36:17.011Z,99.02
2022-12-22T02:37:17.013Z,99.02
2022-12-22T02:38:17.053Z,98.92
2022-12-22T02:39:16.980Z,99.33
2022-12-22T02:40:16.991Z,98.92
2022-12-22T02:41:16.963Z,99.02
2022-12-22T02:42:16.986Z,99.02
2022-12-22T02:43:16.962Z,98.92
2022-12-22T02:44:16.971Z,98.55
2022-12-22T02:45:16.935Z,99.22
2022-12-22T02:46:16.960Z,99.12
2022-12-22T02:47:16.938Z,98.71
2022-12-22T02:48:16.969Z,99.43
2022-12-22T02:49:16.933Z,99.02
2022-12-22T02:50:16.994Z,98.82
2022-12-22T02:51:16.905Z,99.12
2022-12-22T02:52:16.907Z,99.12
2022-12-22T02:53:16.881Z,98.61
2022-12-22T02:54:16.907Z,99.02
2022-12-22T02:55:16.880Z,98.71
2022-12-22T02:56:16.869Z,99.12
2022-12-22T02:57:16.866Z,98.92
2022-12-22T02:58:16.863Z,99.12
2022-12-22T02:59:16.865Z,98.92
2022-12-22T03:00:16.853Z,99.22
2022-12-22T03:01:16.886Z,98.92
2022-12-22T03:02:16.997Z,98.92
2022-12-22T03:03:17.029Z,98.61
2022-12-22T03:04:16.837Z,99.33
2022-12-22T03:05:16.811Z,99.12
2022-12-22T03:06:16.802Z,98.82
2022-12-22T03:07:16.784Z,98.71
2022-12-22T03:08:16.802Z,98.61
2022-12-22T03:09:16.789Z,99.08
2022-12-22T03:10:16.792Z,99.08
2022-12-22T03:11:16.779Z,99.18
2022-12-22T03:12:16.758Z,98.92
2022-12-22T03:13:16.755Z,98.87
2022-12-22T03:14:16.748Z,99.02
2022-12-22T03:15:16.744Z,98.10
2022-12-22T03:16:16.787Z,97.99
2022-12-22T03:17:16.747Z,97.95
2022-12-22T03:18:16.717Z,98.05
2022-12-22T03:19:16.707Z,98.36
2022-12-22T03:20:16.764Z,98.51
2022-12-22T03:21:16.690Z,98.36
2022-12-22T03:22:16.740Z,98.46
2022-12-22T03:23:16.688Z,98.05
2022-12-22T03:24:16.675Z,98.25
2022-12-22T03:25:16.676Z,98.57
2022-12-22T03:26:16.662Z,98.25
2022-12-22T03:27:16.648Z,98.25
2022-12-22T03:28:16.662Z,98.36
2022-12-22T03:29:16.625Z,98.61
2022-12-22T03:30:16.745Z,98.57
2022-12-22T03:31:16.694Z,98.41
2022-12-22T03:32:16.618Z,98.41
2022-12-22T03:33:16.600Z,97.85
2022-12-22T03:34:16.666Z,98.36
2022-12-22T03:35:16.621Z,98.05
2022-12-22T03:36:16.653Z,99.12
2022-12-22T03:37:16.588Z,99.33
2022-12-22T03:38:16.579Z,98.87
2022-12-22T03:39:16.571Z,99.12
2022-12-22T03:40:16.585Z,98.51
2022-12-22T03:41:16.545Z,98.30
2022-12-22T03:42:16.585Z,98.67
2022-12-22T03:43:16.549Z,99.02
2022-12-22T03:44:16.545Z,99.18
2022-12-22T03:45:16.536Z,99.02
2022-12-22T03:46:16.699Z,99.12
2022-12-22T03:47:16.563Z,99.02
2022-12-22T03:48:16.540Z,99.33
2022-12-22T03:49:16.497Z,99.22
2022-12-22T03:50:16.488Z,99.12
2022-12-22T03:51:16.472Z,98.92
2022-12-22T03:52:16.513Z,99.22
2022-12-22T03:53:16.480Z,99.18
2022-12-22T03:54:16.496Z,99.49
2022-12-22T03:55:16.453Z,99.79
2022-12-22T03:56:16.448Z,99.74
2022-12-22T03:57:44.182Z,98.77
2022-12-22T03:58:16.420Z,98.71
2022-12-22T03:59:16.474Z,98.77
2022-12-22T04:00:16.409Z,98.87
2022-12-22T04:01:16.456Z,99.63
2022-12-22T04:02:16.589Z,99.02
2022-12-22T04:03:16.579Z,98.97
2022-12-22T04:04:16.400Z,99.59
2022-12-22T04:05:16.396Z,99.02
2022-12-22T04:06:16.366Z,99.74
2022-12-22T04:07:16.374Z,99.95
2022-12-22T04:08:16.412Z,99.63
2022-12-22T04:09:16.389Z,99.54
2022-12-22T04:10:16.350Z,99.22
2022-12-22T04:11:16.359Z,99.22
2022-12-22T04:12:16.340Z,99.63
2022-12-22T04:13:16.317Z,99.54
2022-12-22T04:14:16.336Z,99.63
2022-12-22T04:15:16.308Z,99.33
2022-12-22T04:16:16.359Z,99.43
2022-12-22T04:17:16.311Z,99.48
2022-12-22T04:18:16.291Z,99.74
2022-12-22T04:19:16.277Z,99.74
2022-12-22T04:20:16.299Z,99.63
2022-12-22T04:21:16.276Z,99.63
2022-12-22T04:22:16.269Z,99.68
2022-12-22T04:23:18.267Z,99.74
2022-12-22T04:24:17.263Z,99.99
2022-12-22T04:25:16.270Z,99.68
2022-12-22T04:26:16.258Z,99.63
2022-12-22T04:27:16.226Z,99.99
2022-12-22T04:28:16.330Z,99.99
2022-12-22T04:29:16.232Z,99.99
2022-12-22T04:30:16.245Z,99.99
2022-12-22T04:31:16.237Z,99.99
2022-12-22T04:32:16.309Z,99.95
2022-12-22T04:33:16.199Z,99.84
2022-12-22T04:34:16.196Z,99.43
2022-12-22T04:35:16.181Z,99.74
2022-12-22T04:36:16.168Z,99.63
2022-12-22T04:37:17.683Z,99.54
2022-12-22T04:38:16.170Z,99.63
2022-12-22T04:39:16.171Z,99.43
2022-12-22T04:40:16.155Z,99.54
2022-12-22T04:41:16.158Z,99.63
2022-12-22T04:42:16.133Z,99.58
2022-12-22T04:43:16.144Z,99.74
2022-12-22T04:44:16.115Z,99.54
2022-12-22T04:45:16.100Z,99.43
2022-12-22T04:46:16.204Z,99.38
2022-12-22T04:47:16.083Z,99.68
2022-12-22T04:48:16.099Z,99.79
2022-12-22T04:49:16.081Z,99.89
2022-12-22T04:50:16.252Z,99.68
2022-12-22T04:51:16.049Z,99.95
2022-12-22T04:52:16.071Z,99.84
2022-12-22T04:53:16.050Z,99.95
2022-12-22T04:54:16.042Z,99.54
2022-12-22T04:55:16.170Z,99.68
2022-12-22T04:56:16.033Z,99.48
2022-12-22T04:57:16.007Z,99.63
2022-12-22T04:58:16.020Z,99.63
2022-12-22T04:59:16.000Z,99.58
2022-12-22T05:00:16.007Z,99.58
2022-12-22T05:01:16.146Z,99.89
2022-12-22T05:02:16.069Z,99.99
2022-12-22T05:03:16.017Z,99.89
2022-12-22T05:04:20.339Z,99.58
2022-12-22T05:05:16.967Z,99.63
2022-12-22T05:06:16.012Z,99.58
2022-12-22T05:07:15.949Z,99.79
2022-12-22T05:08:15.977Z,99.58
2022-12-22T05:09:15.936Z,99.68
2022-12-22T05:10:15.917Z,99.99
2022-12-22T05:11:15.944Z,99.99
2022-12-22T05:12:15.933Z,99.79
2022-12-22T05:13:15.897Z,99.99
2022-12-22T05:14:15.923Z,99.84
2022-12-22T05:15:15.909Z,99.74
2022-12-22T05:16:15.997Z,99.99
2022-12-22T05:17:15.898Z,99.54
2022-12-22T05:18:15.882Z,99.54
2022-12-22T05:19:15.871Z,99.63
2022-12-22T05:20:15.857Z,99.54
2022-12-22T05:21:15.831Z,99.63
2022-12-22T05:22:15.848Z,99.18
2022-12-22T05:23:15.838Z,99.38
2022-12-22T05:24:15.859Z,99.99
2022-12-22T05:25:15.807Z,99.74
2022-12-22T05:26:15.819Z,99.59
2022-12-22T05:27:15.811Z,99.18
2022-12-22T05:28:15.867Z,99.18
2022-12-22T05:29:15.784Z,99.08
2022-12-22T05:30:15.779Z,98.82
2022-12-22T05:31:15.901Z,98.61
2022-12-22T05:32:15.761Z,98.82
2022-12-22T05:33:15.746Z,98.67
2022-12-22T05:34:15.769Z,98.61
2022-12-22T05:35:15.743Z,99.12
2022-12-22T05:36:15.770Z,99.22
2022-12-22T05:37:15.733Z,99.22
2022-12-22T05:38:15.722Z,99.54
2022-12-22T05:39:15.721Z,99.43
2022-12-22T05:40:15.721Z,99.28
2022-12-22T05:41:15.713Z,99.69
2022-12-22T05:42:15.694Z,99.33
2022-12-22T05:43:15.720Z,99.22
2022-12-22T05:44:15.714Z,99.08
2022-12-22T05:45:15.661Z,99.18
2022-12-22T05:46:15.731Z,99.54
2022-12-22T05:47:15.647Z,99.49
2022-12-22T05:48:17.147Z,99.38
2022-12-22T05:49:15.650Z,98.97
2022-12-22T05:50:15.640Z,98.57
2022-12-22T05:51:15.627Z,98.97
2022-12-22T05:52:15.645Z,99.08
2022-12-22T05:53:15.609Z,98.97
2022-12-22T05:54:23.232Z,98.77
2022-12-22T05:55:15.605Z,98.67
2022-12-22T05:56:15.591Z,99.59
2022-12-22T05:57:15.585Z,99.38
2022-12-22T05:58:15.606Z,98.77
2022-12-22T05:59:15.603Z,99.18
2022-12-22T06:00:15.578Z,99.18
2022-12-22T06:01:15.596Z,99.49
2022-12-22T06:02:15.791Z,99.69
2022-12-22T06:03:15.637Z,98.97
2022-12-22T06:04:15.757Z,99.59
2022-12-22T06:05:15.545Z,99.49
2022-12-22T06:06:15.541Z,99.49
2022-12-22T06:07:15.498Z,99.18
2022-12-22T06:08:15.521Z,99.59
2022-12-22T06:09:15.505Z,99.59
2022-12-22T06:10:15.500Z,99.59
2022-12-22T06:11:15.480Z,99.69
2022-12-22T06:12:15.500Z,99.59
2022-12-22T06:13:15.496Z,99.90
2022-12-22T06:14:15.454Z,99.65
2022-12-22T06:15:15.518Z,99.65
2022-12-22T06:16:15.499Z,99.75
2022-12-22T06:17:15.438Z,99.65
2022-12-22T06:18:15.441Z,99.44
2022-12-22T06:19:15.489Z,99.44
2022-12-22T06:20:15.422Z,99.44
2022-12-22T06:21:15.443Z,99.65
2022-12-22T06:22:15.396Z,99.24
2022-12-22T06:23:15.424Z,99.44
2022-12-22T06:24:15.371Z,99.65
2022-12-22T06:25:18.407Z,99.34
2022-12-22T06:26:15.380Z,99.75
2022-12-22T06:27:15.384Z,99.65
2022-12-22T06:28:15.366Z,99.44
2022-12-22T06:29:15.355Z,99.75
2022-12-22T06:30:15.348Z,99.95
2022-12-22T06:31:15.451Z,99.99
2022-12-22T06:32:15.363Z,99.99
2022-12-22T06:33:15.359Z,99.99
2022-12-22T06:34:15.312Z,99.99
2022-12-22T06:35:15.326Z,99.99
2022-12-22T06:36:15.300Z,99.99
2022-12-22T06:37:15.348Z,99.99
2022-12-22T06:38:15.300Z,99.99
2022-12-22T06:39:15.326Z,99.99
2022-12-22T06:40:15.279Z,99.99
2022-12-22T06:41:15.296Z,99.99
2022-12-22T06:42:15.272Z,99.99
2022-12-22T06:43:15.264Z,99.99
2022-12-22T06:44:15.259Z,99.99
2022-12-22T06:45:15.291Z,99.99
2022-12-22T06:46:15.270Z,99.99
2022-12-22T06:47:15.268Z,99.99
2022-12-22T06:48:15.219Z,99.99
2022-12-22T06:49:15.223Z,99.99
2022-12-22T06:50:15.213Z,99.99
2022-12-22T06:51:15.196Z,99.99
2022-12-22T06:52:15.234Z,99.99
2022-12-22T06:53:15.238Z,99.99
2022-12-22T06:54:16.112Z,99.99
2022-12-22T06:55:15.194Z,99.99
2022-12-22T06:56:15.153Z,99.99
2022-12-22T06:57:50.720Z,99.99
2022-12-22T06:58:15.177Z,99.99
2022-12-22T06:59:15.175Z,99.99
2022-12-22T07:00:15.134Z,99.99
2022-12-22T07:01:15.210Z,99.99
2022-12-22T07:02:15.385Z,99.99
2022-12-22T07:03:15.451Z,99.99
2022-12-22T07:04:15.209Z,99.99
2022-12-22T07:05:15.083Z,99.99
2022-12-22T07:06:15.097Z,99.99
2022-12-22T07:07:15.087Z,99.99
2022-12-22T07:08:15.073Z,99.99
2022-12-22T07:09:15.079Z,99.99
2022-12-22T07:10:15.075Z,99.99
2022-12-22T07:11:15.146Z,99.99
2022-12-22T07:12:15.051Z,99.99
2022-12-22T07:13:15.064Z,99.99
2022-12-22T07:14:15.048Z,99.99
2022-12-22T07:15:22.083Z,99.99
2022-12-22T07:16:15.211Z,99.99
2022-12-22T07:17:15.020Z,99.99
2022-12-22T07:18:15.259Z,99.99
2022-12-22T07:19:15.051Z,99.99
2022-12-22T07:20:14.993Z,99.99
2022-12-22T07:21:15.017Z,99.99
2022-12-22T07:22:14.968Z,99.99
2022-12-22T07:23:15.020Z,99.99
2022-12-22T07:24:14.963Z,99.99
2022-12-22T07:25:14.963Z,99.99
2022-12-22T07:26:14.978Z,99.99
2022-12-22T07:27:14.939Z,99.99
2022-12-22T07:28:18.488Z,99.99
2022-12-22T07:29:15.953Z,99.99
2022-12-22T07:30:14.904Z,99.99
2022-12-22T07:31:15.098Z,99.99
2022-12-22T07:32:14.886Z,99.99
2022-12-22T07:33:14.894Z,99.99
2022-12-22T07:34:14.885Z,99.99
2022-12-22T07:35:14.997Z,99.99
2022-12-22T07:36:14.895Z,99.99
2022-12-22T07:37:14.885Z,99.99
2022-12-22T07:38:14.903Z,99.99
2022-12-22T07:39:14.864Z,99.90
2022-12-22T07:40:14.839Z,99.99
2022-12-22T07:41:40.770Z,99.90
2022-12-22T07:42:42.235Z,99.99
2022-12-22T07:43:14.813Z,99.99
2022-12-22T07:44:14.834Z,99.99
2022-12-22T07:45:35.821Z,99.99
2022-12-22T07:46:14.840Z,99.95
2022-12-22T07:47:14.797Z,99.79
2022-12-22T07:48:14.794Z,99.65
2022-12-22T07:49:14.782Z,99.34
2022-12-22T07:50:14.787Z,99.24
2022-12-22T07:51:14.820Z,99.99
2022-12-22T07:52:14.775Z,99.99
2022-12-22T07:53:14.757Z,99.54
2022-12-22T07:54:14.772Z,99.44
2022-12-22T07:55:14.724Z,99.65
2022-12-22T07:56:15.050Z,99.75
2022-12-22T07:57:14.721Z,99.54
2022-12-22T07:58:14.727Z,99.65
2022-12-22T07:59:14.695Z,98.93
2022-12-22T08:00:16.344Z,99.13
2022-12-22T08:01:14.727Z,98.72
2022-12-22T08:02:50.453Z,98.83
2022-12-22T08:03:14.849Z,99.13
2022-12-22T08:04:14.780Z,99.34
2022-12-22T08:05:14.772Z,99.13
2022-12-22T08:06:14.693Z,99.09
2022-12-22T08:07:14.712Z,98.88
2022-12-22T08:08:14.625Z,98.88
2022-12-22T08:09:14.627Z,98.88
2022-12-22T08:10:14.704Z,98.47
2022-12-22T08:11:50.364Z,97.96
2022-12-22T08:12:14.619Z,98.12
2022-12-22T08:13:14.700Z,98.22
2022-12-22T08:14:14.647Z,98.12
2022-12-22T08:15:14.583Z,98.27
2022-12-22T08:16:14.683Z,98.37
2022-12-22T08:17:14.572Z,98.37
2022-12-22T08:18:14.559Z,98.27
2022-12-22T08:19:14.573Z,98.16
2022-12-22T08:20:14.606Z,98.78
2022-12-22T08:21:14.533Z,98.58
2022-12-22T08:22:14.554Z,97.75
2022-12-22T08:23:14.558Z,97.75
2022-12-22T08:24:14.546Z,98.88
2022-12-22T08:25:14.552Z,98.99
2022-12-22T08:26:14.558Z,99.09
2022-12-22T08:27:14.505Z,98.47
2022-12-22T08:28:14.499Z,99.29
2022-12-22T08:29:14.538Z,99.09
2022-12-22T08:30:14.502Z,99.50
2022-12-22T08:31:14.538Z,99.40
2022-12-22T08:32:14.669Z,99.75
2022-12-22T08:33:14.449Z,99.91
2022-12-22T08:34:14.462Z,99.99
2022-12-22T08:35:14.490Z,99.99
2022-12-22T08:36:14.450Z,99.99
2022-12-22T08:37:14.435Z,99.99
2022-12-22T08:38:14.480Z,99.99
2022-12-22T08:39:14.456Z,99.99
2022-12-22T08:40:14.423Z,99.99
2022-12-22T08:41:14.420Z,99.99
2022-12-22T08:42:14.398Z,99.99
2022-12-22T08:43:14.413Z,99.99
2022-12-22T08:44:14.442Z,99.99
2022-12-22T08:45:14.377Z,99.99
2022-12-22T08:46:14.449Z,99.99
2022-12-22T08:47:17.136Z,99.99
2022-12-22T08:48:14.350Z,99.99
2022-12-22T08:49:14.354Z,99.60
2022-12-22T08:50:14.364Z,99.80
2022-12-22T08:51:14.364Z,99.09
2022-12-22T08:52:18.366Z,99.70
2022-12-22T08:53:37.267Z,99.55
2022-12-22T08:54:15.319Z,99.04
2022-12-22T08:55:14.340Z,98.78
2022-12-22T08:56:14.288Z,99.60
2022-12-22T08:57:14.322Z,98.88
2022-12-22T08:58:14.299Z,99.25
2022-12-22T08:59:14.290Z,98.63
2022-12-22T09:00:14.310Z,98.99
2022-12-22T09:01:14.393Z,99.19
2022-12-22T09:02:14.422Z,98.68
2022-12-22T09:03:14.281Z,98.63
2022-12-22T09:04:14.289Z,98.68
2022-12-22T09:05:14.319Z,98.58
2022-12-22T09:06:14.293Z,98.58
2022-12-22T09:07:14.230Z,99.19
2022-12-22T09:08:14.228Z,98.88
2022-12-22T09:09:14.227Z,98.88
2022-12-22T09:10:14.249Z,98.78
2022-12-22T09:11:14.288Z,98.16
2022-12-22T09:12:14.209Z,98.16
2022-12-22T09:13:14.157Z,98.37
2022-12-22T09:14:14.241Z,98.07
2022-12-22T09:15:14.148Z,98.43
2022-12-22T09:16:14.199Z,98.02
2022-12-22T09:17:14.148Z,98.43
2022-12-22T09:18:14.122Z,98.02
2022-12-22T09:19:14.152Z,98.12
2022-12-22T09:20:14.153Z,97.91
2022-12-22T09:21:14.096Z,98.43
2022-12-22T09:22:14.168Z,97.71
2022-12-22T09:23:14.092Z,97.71
2022-12-22T09:24:14.102Z,98.12
2022-12-22T09:25:14.087Z,97.71
2022-12-22T09:26:14.079Z,97.81
2022-12-22T09:27:14.112Z,98.12
2022-12-22T09:28:14.087Z,98.22
2022-12-22T09:29:14.054Z,98.02
2022-12-22T09:30:14.037Z,97.81
2022-12-22T09:31:14.172Z,98.43
2022-12-22T09:32:14.101Z,98.12
2022-12-22T09:33:14.014Z,98.12
2022-12-22T09:34:18.000Z,98.02
2022-12-22T09:35:14.033Z,98.22
2022-12-22T09:36:14.054Z,98.12
2022-12-22T09:37:14.818Z,98.16
2022-12-22T09:38:13.988Z,97.91
2022-12-22T09:39:13.984Z,97.91
2022-12-22T09:40:14.153Z,97.96
2022-12-22T09:41:13.977Z,98.68
2022-12-22T09:42:14.065Z,98.74
2022-12-22T09:43:13.992Z,99.04
2022-12-22T09:44:13.932Z,99.09
2022-12-22T09:45:17.274Z,98.99
2022-12-22T09:46:14.017Z,99.19
2022-12-22T09:47:13.923Z,98.83
2022-12-22T09:48:13.921Z,99.04
2022-12-22T09:49:13.917Z,99.04
2022-12-22T09:50:13.935Z,99.25
2022-12-22T09:51:13.894Z,99.19
2022-12-22T09:52:13.887Z,98.63
2022-12-22T09:53:13.871Z,98.43
2022-12-22T09:54:14.399Z,98.43
2022-12-22T09:55:13.846Z,98.94
2022-12-22T09:56:13.921Z,98.88
2022-12-22T09:57:13.860Z,98.83
2022-12-22T09:58:13.855Z,99.25
2022-12-22T09:59:13.876Z,98.99
2022-12-22T10:00:13.879Z,98.99
2022-12-22T10:01:13.872Z,98.69
2022-12-22T10:02:13.904Z,98.18
2022-12-22T10:03:13.875Z,97.92
2022-12-22T10:04:13.881Z,98.03
2022-12-22T10:05:13.792Z,97.67
2022-12-22T10:06:13.833Z,96.86
2022-12-22T10:07:13.760Z,96.96
2022-12-22T10:08:13.780Z,96.96
2022-12-22T10:09:44.080Z,96.75
2022-12-22T10:10:14.787Z,96.92
2022-12-22T10:11:13.780Z,96.51
2022-12-22T10:12:13.803Z,96.51
2022-12-22T10:13:13.733Z,96.26
2022-12-22T10:14:13.735Z,96.36
2022-12-22T10:15:18.475Z,95.85
2022-12-22T10:16:14.785Z,95.64
2022-12-22T10:18:40.110Z,95.03
2022-12-22T10:19:40.111Z,95.80
2022-12-22T10:20:40.149Z,95.60
2022-12-22T10:21:46.339Z,95.70
2022-12-22T10:22:40.098Z,94.98
2022-12-22T10:23:40.056Z,94.02
2022-12-22T10:24:40.077Z,94.27
2022-12-22T10:26:17.296Z,94.53
2022-12-22T10:26:41.079Z,93.31
2022-12-22T10:27:44.362Z,93.31
2022-12-22T10:29:08.777Z,93.92
2022-12-22T10:29:51.085Z,94.33
2022-12-22T10:30:40.040Z,94.33
2022-12-22T10:31:40.174Z,93.55
2022-12-22T10:32:39.999Z,93.31
2022-12-22T10:33:46.189Z,93.86
2022-12-22T10:34:40.987Z,93.86
2022-12-22T10:35:40.034Z,93.96
2022-12-22T10:36:39.993Z,94.48
2022-12-22T10:37:39.978Z,94.58
2022-12-22T10:38:39.952Z,95.09
2022-12-22T10:39:39.989Z,95.23
2022-12-22T10:40:39.929Z,95.34
2022-12-22T10:41:39.953Z,95.03
2022-12-22T10:42:39.979Z,95.34
2022-12-22T10:43:39.927Z,95.13
2022-12-22T10:44:39.938Z,95.95
2022-12-22T10:45:39.944Z,96.30
2022-12-22T10:46:40.101Z,95.13
2022-12-22T10:47:39.940Z,94.77
2022-12-22T10:48:39.884Z,95.59
2022-12-22T10:50:26.375Z,95.28
2022-12-22T10:51:26.341Z,96.61
2022-12-22T10:52:30.411Z,96.34
2022-12-22T10:53:26.336Z,96.00
2022-12-22T10:54:26.356Z,96.51
2022-12-22T10:55:26.316Z,96.61
2022-12-22T10:56:26.324Z,96.51
2022-12-22T10:57:26.319Z,96.30
2022-12-22T10:58:26.315Z,96.81
2022-12-22T10:59:26.297Z,96.71
2022-12-22T11:00:26.353Z,96.66
2022-12-22T11:01:26.426Z,96.66
2022-12-22T11:02:26.590Z,96.55
2022-12-22T11:03:26.463Z,96.34
2022-12-22T11:04:26.281Z,96.92
2022-12-22T11:05:26.292Z,96.45
2022-12-22T11:06:26.265Z,96.75
2022-12-22T11:07:26.263Z,96.45
2022-12-22T11:08:26.270Z,96.55
2022-12-22T11:09:35.325Z,96.96
2022-12-22T11:10:27.216Z,96.14
2022-12-22T11:11:26.240Z,96.80
2022-12-22T11:12:26.207Z,96.55
2022-12-22T11:13:26.231Z,96.55
2022-12-22T11:14:26.203Z,96.25
2022-12-22T11:15:26.188Z,96.55
2022-12-22T11:16:26.310Z,96.55
2022-12-22T11:17:26.176Z,96.96
2022-12-22T11:18:26.185Z,97.16
2022-12-22T11:19:26.207Z,96.75
2022-12-22T11:20:26.141Z,96.86
2022-12-22T11:21:26.157Z,96.66
2022-12-22T11:22:26.803Z,96.92
2022-12-22T11:23:26.124Z,96.96
2022-12-22T11:24:26.106Z,96.75
2022-12-22T11:25:26.134Z,96.25
2022-12-22T11:26:26.156Z,96.25
2022-12-22T11:27:26.104Z,96.25
2022-12-22T11:28:26.135Z,96.45
2022-12-22T11:29:26.121Z,96.51
2022-12-22T11:30:26.101Z,96.20
2022-12-22T11:31:26.293Z,95.18
2022-12-22T11:32:26.075Z,95.59
2022-12-22T11:33:26.125Z,96.10
2022-12-22T11:34:26.138Z,96.30
2022-12-22T11:35:26.129Z,96.71
2022-12-22T11:36:26.079Z,96.61
2022-12-22T11:37:26.093Z,96.30
2022-12-22T11:38:26.031Z,96.92
2022-12-22T11:39:26.121Z,95.94
2022-12-22T11:40:26.017Z,96.30
2022-12-22T11:41:26.022Z,96.71
2022-12-22T11:42:26.005Z,96.30
2022-12-22T11:43:26.019Z,96.15
2022-12-22T11:44:26.012Z,96.15
2022-12-22T11:45:26.031Z,95.85
2022-12-22T11:46:26.047Z,95.89
2022-12-22T11:47:25.998Z,96.36
2022-12-22T11:48:26.191Z,95.13
2022-12-22T11:49:25.951Z,95.59
2022-12-22T11:50:58.361Z,95.44
2022-12-22T11:51:27.992Z,95.85
2022-12-22T11:52:25.924Z,95.85
2022-12-22T11:53:26.000Z,95.75
2022-12-22T11:54:25.960Z,95.13
2022-12-22T11:55:25.915Z,95.29
2022-12-22T11:56:25.896Z,94.48
2022-12-22T11:57:25.996Z,94.68
2022-12-22T11:58:25.938Z,95.39
2022-12-22T11:59:25.879Z,94.48
2022-12-22T12:00:55.805Z,94.17
2022-12-22T12:01:26.504Z,93.55
2022-12-22T12:02:26.094Z,94.17
2022-12-22T12:03:26.056Z,94.17
2022-12-22T12:04:26.012Z,93.66
2022-12-22T12:05:25.915Z,94.17
2022-12-22T12:06:25.892Z,93.91
2022-12-22T12:07:26.450Z,94.21
2022-12-22T12:08:26.555Z,94.62
2022-12-22T12:09:25.812Z,94.82
2022-12-22T12:10:25.815Z,95.34
2022-12-22T12:11:25.942Z,95.13
2022-12-22T12:12:25.803Z,94.62
2022-12-22T12:13:31.535Z,94.21
2022-12-22T12:14:26.786Z,94.21
2022-12-22T12:15:25.833Z,94.42
2022-12-22T12:16:25.957Z,94.48
2022-12-22T12:17:25.756Z,94.68
2022-12-22T12:18:25.830Z,93.76
2022-12-22T12:19:28.236Z,93.96
2022-12-22T12:20:25.744Z,92.74
2022-12-22T12:21:25.787Z,92.99
2022-12-22T12:22:25.909Z,92.37
2022-12-22T12:23:25.716Z,93.40
2022-12-22T12:24:25.789Z,93.50
2022-12-22T12:25:26.296Z,94.01
2022-12-22T12:26:25.766Z,93.40
2022-12-22T12:27:25.719Z,93.76
2022-12-22T12:28:25.991Z,94.01
2022-12-22T12:29:25.796Z,93.96
2022-12-22T12:30:38.051Z,93.86
2022-12-22T12:31:27.021Z,93.45
2022-12-22T12:32:25.667Z,93.66
2022-12-22T12:33:25.688Z,93.45
2022-12-22T12:34:25.703Z,93.25
2022-12-22T12:35:25.636Z,93.09
2022-12-22T12:36:25.672Z,93.35
2022-12-22T12:37:26.817Z,93.50
2022-12-22T12:39:52.266Z,92.07
2022-12-22T12:40:52.009Z,93.50
2022-12-22T12:41:52.026Z,93.60
2022-12-22T12:42:52.016Z,94.62
2022-12-22T12:43:51.997Z,93.80
2022-12-22T12:44:52.009Z,93.70
2022-12-22T12:45:52.009Z,93.70
2022-12-22T12:46:52.127Z,93.55
2022-12-22T12:47:51.961Z,94.01
2022-12-22T12:48:51.962Z,94.07
2022-12-22T12:49:51.966Z,92.99
2022-12-22T12:50:52.003Z,93.76
2022-12-22T12:51:51.977Z,93.60
2022-12-22T12:52:51.937Z,93.80
2022-12-22T12:53:51.929Z,94.52
2022-12-22T12:54:51.937Z,93.96
2022-12-22T12:55:51.985Z,93.29
2022-12-22T12:56:51.939Z,93.05
2022-12-22T12:57:51.888Z,93.05